createdAt,value
2022-11-06T00:00:10.878Z,10.05
2022-11-06T00:01:10.627Z,10.05
2022-11-06T00:02:13.609Z,10.05
2022-11-06T00:03:11.695Z,10.04
2022-11-06T00:04:10.865Z,10.04
2022-11-06T00:05:10.602Z,10.02
2022-11-06T00:06:10.836Z,10.02
2022-11-06T00:07:10.570Z,10.02
2022-11-06T00:08:11.096Z,10.02
2022-11-06T00:09:30.649Z,10.01
2022-11-06T00:10:10.340Z,10.02
2022-11-06T00:11:10.611Z,10.01
2022-11-06T00:12:10.361Z,10.01
2022-11-06T00:13:10.604Z,9.99
2022-11-06T00:14:10.354Z,9.97
2022-11-06T00:15:10.600Z,9.96
2022-11-06T00:16:10.351Z,9.94
2022-11-06T00:17:10.578Z,9.94
2022-11-06T00:18:10.827Z,9.94
2022-11-06T00:19:30.764Z,9.93
2022-11-06T00:20:10.387Z,9.94
2022-11-06T00:21:11.346Z,9.91
2022-11-06T00:22:10.387Z,9.91
2022-11-06T00:23:10.621Z,9.90
2022-11-06T00:24:10.364Z,9.91
2022-11-06T00:25:10.600Z,9.89
2022-11-06T00:26:10.367Z,9.87
2022-11-06T00:27:10.605Z,9.87
2022-11-06T00:28:10.782Z,9.86
2022-11-06T00:29:32.088Z,9.86
2022-11-06T00:30:10.379Z,9.86
2022-11-06T00:31:10.119Z,9.87
2022-11-06T00:32:10.374Z,9.83
2022-11-06T00:33:10.099Z,9.83
2022-11-06T00:34:10.352Z,9.81
2022-11-06T00:35:10.096Z,9.81
2022-11-06T00:36:10.339Z,9.81
2022-11-06T00:37:10.071Z,9.79
2022-11-06T00:38:10.593Z,9.79
2022-11-06T00:39:32.044Z,9.79
2022-11-06T00:40:10.326Z,9.78
2022-11-06T00:41:10.076Z,9.78
2022-11-06T00:42:10.306Z,9.78
2022-11-06T00:43:10.041Z,9.78
2022-11-06T00:44:10.292Z,9.76
2022-11-06T00:45:10.035Z,9.76
2022-11-06T00:46:10.269Z,9.76
2022-11-06T00:47:10.010Z,9.76
2022-11-06T00:48:10.676Z,9.75
2022-11-06T00:49:31.013Z,9.74
2022-11-06T00:50:10.265Z,9.74
2022-11-06T00:51:10.038Z,9.75
2022-11-06T00:52:10.276Z,9.75
2022-11-06T00:53:10.017Z,9.76
2022-11-06T00:54:10.267Z,9.76
2022-11-06T00:55:10.004Z,9.79
2022-11-06T00:56:10.245Z,9.81
2022-11-06T00:57:09.990Z,9.81
2022-11-06T00:58:10.530Z,9.81
2022-11-06T00:59:30.958Z,9.78
2022-11-06T01:00:10.248Z,9.79
2022-11-06T01:01:10.002Z,9.78
2022-11-06T01:02:10.399Z,9.79
2022-11-06T01:03:10.076Z,9.78
2022-11-06T01:04:10.248Z,9.78
2022-11-06T01:05:09.987Z,9.78
2022-11-06T01:06:10.236Z,9.78
2022-11-06T01:07:11.419Z,9.76
2022-11-06T01:08:10.587Z,9.76
2022-11-06T01:09:31.454Z,9.76
2022-11-06T01:10:09.732Z,9.75
2022-11-06T01:11:09.999Z,9.75
2022-11-06T01:12:14.437Z,9.75
2022-11-06T01:13:10.961Z,9.72
2022-11-06T01:14:09.723Z,9.72
2022-11-06T01:15:09.948Z,9.74
2022-11-06T01:16:09.729Z,9.74
2022-11-06T01:17:09.941Z,9.72
2022-11-06T01:18:09.861Z,9.74
2022-11-06T01:19:30.535Z,9.72
2022-11-06T01:20:09.751Z,9.71
2022-11-06T01:21:10.003Z,9.71
2022-11-06T01:22:09.743Z,9.71
2022-11-06T01:23:09.983Z,9.71
2022-11-06T01:24:09.765Z,9.68
2022-11-06T01:25:09.977Z,9.66
2022-11-06T01:26:09.712Z,9.66
2022-11-06T01:27:25.916Z,9.66
2022-11-06T01:28:11.071Z,9.66
2022-11-06T01:29:31.476Z,9.65
2022-11-06T01:30:09.747Z,9.66
2022-11-06T01:31:10.950Z,9.66
2022-11-06T01:32:09.740Z,9.66
2022-11-06T01:33:09.487Z,9.66
2022-11-06T01:34:09.719Z,9.69
2022-11-06T01:35:09.458Z,9.69
2022-11-06T01:36:09.695Z,9.71
2022-11-06T01:37:14.188Z,9.71
2022-11-06T01:38:11.097Z,9.72
2022-11-06T01:39:30.508Z,9.75
2022-11-06T01:40:09.785Z,9.78
2022-11-06T01:41:09.526Z,9.79
2022-11-06T01:42:10.785Z,9.83
2022-11-06T01:43:09.536Z,9.83
2022-11-06T01:44:09.914Z,9.84
2022-11-06T01:45:09.515Z,9.86
2022-11-06T01:46:09.747Z,9.87
2022-11-06T01:47:09.495Z,9.89
2022-11-06T01:48:09.947Z,9.90
2022-11-06T01:49:31.016Z,9.91
2022-11-06T01:50:09.305Z,9.91
2022-11-06T01:51:09.576Z,9.93
2022-11-06T01:52:09.317Z,9.93
2022-11-06T01:53:09.565Z,9.96
2022-11-06T01:54:10.038Z,9.96
2022-11-06T01:55:09.589Z,9.96
2022-11-06T01:56:09.322Z,9.97
2022-11-06T01:57:09.557Z,10.01
2022-11-06T01:58:09.454Z,9.99
2022-11-06T01:59:31.026Z,10.02
2022-11-06T02:00:09.311Z,10.02
2022-11-06T02:01:09.571Z,10.02
2022-11-06T02:02:09.449Z,10.04
2022-11-06T02:03:09.604Z,10.04
2022-11-06T02:04:09.301Z,10.05
2022-11-06T02:05:09.550Z,10.05
2022-11-06T02:06:09.281Z,10.05
2022-11-06T02:07:09.532Z,10.08
2022-11-06T02:08:09.349Z,10.08
2022-11-06T02:09:31.050Z,10.09
2022-11-06T02:10:09.345Z,10.09
2022-11-06T02:11:10.522Z,10.11
2022-11-06T02:12:09.312Z,10.11
2022-11-06T02:13:09.069Z,10.12
2022-11-06T02:14:09.304Z,10.14
2022-11-06T02:15:09.066Z,10.15
2022-11-06T02:16:09.318Z,10.15
2022-11-06T02:17:09.590Z,10.20
2022-11-06T02:18:09.351Z,10.20
2022-11-06T02:19:30.120Z,10.20
2022-11-06T02:20:09.444Z,10.20
2022-11-06T02:21:09.208Z,10.22
2022-11-06T02:22:09.491Z,10.22
2022-11-06T02:23:09.248Z,10.23
2022-11-06T02:24:09.012Z,10.25
2022-11-06T02:25:09.282Z,10.26
2022-11-06T02:26:09.049Z,10.27
2022-11-06T02:27:09.321Z,10.30
2022-11-06T02:28:09.096Z,10.30
2022-11-06T02:29:30.083Z,10.32
2022-11-06T02:30:09.152Z,10.33
2022-11-06T02:31:08.906Z,10.33
2022-11-06T02:32:09.182Z,10.33
2022-11-06T02:33:08.961Z,10.34
2022-11-06T02:34:09.232Z,10.33
2022-11-06T02:35:10.454Z,10.34
2022-11-06T02:36:09.271Z,10.34
2022-11-06T02:37:09.034Z,10.33
2022-11-06T02:38:09.334Z,10.34
2022-11-06T02:39:30.575Z,10.32
2022-11-06T02:40:08.904Z,10.33
2022-11-06T02:41:10.104Z,10.32
2022-11-06T02:42:08.935Z,10.30
2022-11-06T02:43:09.208Z,10.30
2022-11-06T02:44:08.966Z,10.30
2022-11-06T02:45:09.229Z,10.27
2022-11-06T02:46:08.939Z,10.27
2022-11-06T02:47:09.189Z,10.27
2022-11-06T02:48:08.923Z,10.26
2022-11-06T02:49:30.668Z,10.25
2022-11-06T02:50:08.959Z,10.25
2022-11-06T02:51:08.701Z,10.25
2022-11-06T02:52:08.947Z,10.23
2022-11-06T02:53:10.125Z,10.22
2022-11-06T02:54:08.910Z,10.22
2022-11-06T02:55:08.665Z,10.20
2022-11-06T02:56:08.907Z,10.20
2022-11-06T02:57:08.658Z,10.17
2022-11-06T02:58:08.890Z,10.17
2022-11-06T02:59:29.591Z,10.17
2022-11-06T03:00:09.870Z,10.18
2022-11-06T03:01:08.675Z,10.18
2022-11-06T03:02:09.073Z,10.18
2022-11-06T03:03:08.651Z,10.20
2022-11-06T03:04:08.907Z,10.20
2022-11-06T03:05:08.634Z,10.20
2022-11-06T03:06:08.878Z,10.20
2022-11-06T03:07:08.619Z,10.23
2022-11-06T03:08:08.896Z,10.20
2022-11-06T03:09:30.217Z,10.22
2022-11-06T03:10:08.541Z,10.23
2022-11-06T03:11:08.817Z,10.22
2022-11-06T03:12:08.569Z,10.23
2022-11-06T03:13:08.879Z,10.25
2022-11-06T03:14:08.646Z,10.26
2022-11-06T03:15:08.946Z,10.25
2022-11-06T03:16:08.709Z,10.26
2022-11-06T03:17:08.458Z,10.26
2022-11-06T03:18:08.769Z,10.27
2022-11-06T03:19:30.016Z,10.29
2022-11-06T03:20:08.831Z,10.27
2022-11-06T03:21:08.631Z,10.29
2022-11-06T03:22:08.889Z,10.26
2022-11-06T03:23:08.702Z,10.27
2022-11-06T03:24:08.461Z,10.27
2022-11-06T03:25:08.710Z,10.26
2022-11-06T03:26:08.512Z,10.25
2022-11-06T03:27:08.792Z,10.23
2022-11-06T03:28:08.581Z,10.22
2022-11-06T03:29:29.811Z,10.22
2022-11-06T03:30:12.529Z,10.22
2022-11-06T03:31:09.437Z,10.20
2022-11-06T03:32:08.663Z,10.20
2022-11-06T03:33:09.378Z,10.18
2022-11-06T03:34:08.733Z,10.18
2022-11-06T03:35:08.554Z,10.17
2022-11-06T03:36:08.294Z,10.18
2022-11-06T03:37:08.573Z,10.20
2022-11-06T03:38:08.345Z,10.17
2022-11-06T03:39:29.114Z,10.18
2022-11-06T03:40:08.464Z,10.18
2022-11-06T03:41:08.214Z,10.18
2022-11-06T03:42:08.514Z,10.18
2022-11-06T03:43:08.258Z,10.17
2022-11-06T03:44:08.496Z,10.20
2022-11-06T03:45:09.187Z,10.23
2022-11-06T03:46:08.474Z,10.22
2022-11-06T03:47:08.233Z,10.25
2022-11-06T03:48:08.471Z,10.25
2022-11-06T03:49:29.757Z,10.26
2022-11-06T03:50:08.038Z,10.27
2022-11-06T03:51:08.283Z,10.27
2022-11-06T03:52:08.039Z,10.27
2022-11-06T03:53:08.271Z,10.27
2022-11-06T03:54:08.021Z,10.29
2022-11-06T03:55:08.263Z,10.29
2022-11-06T03:56:07.993Z,10.30
2022-11-06T03:57:08.244Z,10.30
2022-11-06T03:58:08.231Z,10.30
2022-11-06T03:59:29.736Z,10.30
2022-11-06T04:00:08.048Z,10.32
2022-11-06T04:01:08.264Z,10.32
2022-11-06T04:02:08.125Z,10.32
2022-11-06T04:03:08.390Z,10.32
2022-11-06T04:04:08.018Z,10.32
2022-11-06T04:05:08.278Z,10.33
2022-11-06T04:06:08.009Z,10.34
2022-11-06T04:07:08.264Z,10.34
2022-11-06T04:08:07.996Z,10.33
2022-11-06T04:09:28.625Z,10.34
2022-11-06T04:10:08.028Z,10.34
2022-11-06T04:11:08.277Z,10.36
2022-11-06T04:12:08.016Z,10.38
2022-11-06T04:13:08.282Z,10.38
2022-11-06T04:14:08.006Z,10.41
2022-11-06T04:15:08.271Z,10.42
2022-11-06T04:16:08.006Z,10.44
2022-11-06T04:17:07.757Z,10.42
2022-11-06T04:18:07.987Z,10.41
2022-11-06T04:19:29.245Z,10.44
2022-11-06T04:20:08.036Z,10.44
2022-11-06T04:21:07.779Z,10.44
2022-11-06T04:22:08.033Z,10.42
2022-11-06T04:23:07.780Z,10.41
2022-11-06T04:24:08.039Z,10.41
2022-11-06T04:25:07.770Z,10.41
2022-11-06T04:26:08.026Z,10.42
2022-11-06T04:27:07.766Z,10.42
2022-11-06T04:28:08.009Z,10.41
2022-11-06T04:29:29.301Z,10.41
2022-11-06T04:30:08.069Z,10.41
2022-11-06T04:31:07.808Z,10.41
2022-11-06T04:32:08.055Z,10.41
2022-11-06T04:33:07.793Z,10.40
2022-11-06T04:34:08.041Z,10.41
2022-11-06T04:35:07.780Z,10.41
2022-11-06T04:36:08.049Z,10.42
2022-11-06T04:37:07.797Z,10.41
2022-11-06T04:38:07.569Z,10.41
2022-11-06T04:39:28.651Z,10.44
2022-11-06T04:40:07.562Z,10.42
2022-11-06T04:41:07.804Z,10.41
2022-11-06T04:42:07.554Z,10.41
2022-11-06T04:43:07.782Z,10.40
2022-11-06T04:44:07.533Z,10.41
2022-11-06T04:45:08.729Z,10.40
2022-11-06T04:46:07.545Z,10.38
2022-11-06T04:47:07.788Z,10.40
2022-11-06T04:48:07.523Z,10.38
2022-11-06T04:49:28.761Z,10.36
2022-11-06T04:50:07.543Z,10.36
2022-11-06T04:51:07.794Z,10.36
2022-11-06T04:52:07.548Z,10.34
2022-11-06T04:53:07.776Z,10.34
2022-11-06T04:54:07.529Z,10.32
2022-11-06T04:55:07.768Z,10.32
2022-11-06T04:56:07.506Z,10.30
2022-11-06T04:57:07.734Z,10.32
2022-11-06T04:58:07.493Z,10.29
2022-11-06T04:59:27.807Z,10.29
2022-11-06T05:00:07.513Z,10.29
2022-11-06T05:01:07.773Z,10.29
2022-11-06T05:02:07.614Z,10.27
2022-11-06T05:03:07.736Z,10.29
2022-11-06T05:04:08.179Z,10.26
2022-11-06T05:05:07.727Z,10.25
2022-11-06T05:06:07.479Z,10.26
2022-11-06T05:07:07.234Z,10.26
2022-11-06T05:08:07.484Z,10.23
2022-11-06T05:09:29.252Z,10.25
2022-11-06T05:10:07.546Z,10.25
2022-11-06T05:11:07.279Z,10.25
2022-11-06T05:12:07.537Z,10.25
2022-11-06T05:13:07.283Z,10.25
2022-11-06T05:14:07.538Z,10.25
2022-11-06T05:15:07.275Z,10.23
2022-11-06T05:16:07.545Z,10.22
2022-11-06T05:17:07.282Z,10.23
2022-11-06T05:18:07.531Z,10.22
2022-11-06T05:19:28.177Z,10.22
2022-11-06T05:20:07.570Z,10.22
2022-11-06T05:21:07.315Z,10.22
2022-11-06T05:22:08.395Z,10.22
2022-11-06T05:23:07.336Z,10.25
2022-11-06T05:24:07.069Z,10.25
2022-11-06T05:25:07.304Z,10.25
2022-11-06T05:26:07.058Z,10.25
2022-11-06T05:27:07.290Z,10.26
2022-11-06T05:28:07.131Z,10.26
2022-11-06T05:29:28.846Z,10.26
2022-11-06T05:30:07.144Z,10.26
2022-11-06T05:31:07.383Z,10.27
2022-11-06T05:32:07.143Z,10.26
2022-11-06T05:33:07.383Z,10.29
2022-11-06T05:34:07.124Z,10.27
2022-11-06T05:35:07.376Z,10.27
2022-11-06T05:36:07.115Z,10.29
2022-11-06T05:37:08.299Z,10.27
2022-11-06T05:38:07.098Z,10.26
2022-11-06T05:39:28.834Z,10.29
2022-11-06T05:40:07.126Z,10.29
2022-11-06T05:41:06.884Z,10.27
2022-11-06T05:42:07.125Z,10.29
2022-11-06T05:43:07.504Z,10.27
2022-11-06T05:44:07.124Z,10.27
2022-11-06T05:45:06.886Z,10.26
2022-11-06T05:46:18.801Z,10.26
2022-11-06T05:47:07.897Z,10.25
2022-11-06T05:48:07.125Z,10.22
2022-11-06T05:49:27.705Z,10.20
2022-11-06T05:50:07.135Z,10.20
2022-11-06T05:51:06.873Z,10.18
2022-11-06T05:52:07.107Z,10.17
2022-11-06T05:53:06.866Z,10.17
2022-11-06T05:54:07.101Z,10.15
2022-11-06T05:55:11.665Z,10.15
2022-11-06T05:56:08.079Z,10.15
2022-11-06T05:57:07.196Z,10.15
2022-11-06T05:58:07.109Z,10.15
2022-11-06T05:59:28.329Z,10.15
2022-11-06T06:00:07.117Z,10.18
2022-11-06T06:01:06.868Z,10.15
2022-11-06T06:02:07.270Z,10.17
2022-11-06T06:03:06.883Z,10.15
2022-11-06T06:04:07.081Z,10.15
2022-11-06T06:05:06.822Z,10.15
2022-11-06T06:06:07.078Z,10.12
2022-11-06T06:07:06.833Z,10.14
2022-11-06T06:08:08.012Z,10.12
2022-11-06T06:09:28.340Z,10.09
2022-11-06T06:10:06.638Z,10.11
2022-11-06T06:11:06.879Z,10.09
2022-11-06T06:12:06.628Z,10.09
2022-11-06T06:13:06.872Z,10.05
2022-11-06T06:14:07.563Z,10.05
2022-11-06T06:15:06.862Z,10.05
2022-11-06T06:16:06.612Z,10.04
2022-11-06T06:17:06.843Z,10.02
2022-11-06T06:18:07.541Z,9.99
2022-11-06T06:19:28.334Z,10.01
2022-11-06T06:20:06.612Z,9.99
2022-11-06T06:21:06.866Z,9.99
2022-11-06T06:22:06.614Z,9.96
2022-11-06T06:23:09.630Z,9.96
2022-11-06T06:24:06.613Z,9.94
2022-11-06T06:25:14.680Z,9.94
2022-11-06T06:26:07.593Z,9.94
2022-11-06T06:27:06.854Z,9.93
2022-11-06T06:28:06.597Z,9.91
2022-11-06T06:29:27.228Z,9.91
2022-11-06T06:30:06.674Z,9.91
2022-11-06T06:31:06.426Z,9.93
2022-11-06T06:32:06.665Z,9.91
2022-11-06T06:33:06.395Z,9.90
2022-11-06T06:34:06.645Z,9.90
2022-11-06T06:35:07.836Z,9.91
2022-11-06T06:36:06.646Z,9.90
2022-11-06T06:37:06.399Z,9.90
2022-11-06T06:38:06.658Z,9.90
2022-11-06T06:39:27.397Z,9.93
2022-11-06T06:40:06.679Z,9.93
2022-11-06T06:41:06.418Z,9.93
2022-11-06T06:42:06.652Z,9.91
2022-11-06T06:43:06.395Z,9.97
2022-11-06T06:44:06.640Z,10.01
2022-11-06T06:45:06.398Z,10.01
2022-11-06T06:46:06.634Z,10.05
2022-11-06T06:47:07.333Z,10.07
2022-11-06T06:48:06.633Z,10.11
2022-11-06T06:49:27.911Z,10.15
2022-11-06T06:50:06.234Z,10.17
2022-11-06T06:51:06.430Z,10.18
2022-11-06T06:52:06.188Z,10.20
2022-11-06T06:53:06.421Z,10.23
2022-11-06T06:54:06.159Z,10.27
2022-11-06T06:55:06.407Z,10.32
2022-11-06T06:56:06.140Z,10.33
2022-11-06T06:57:06.398Z,10.34
2022-11-06T06:58:06.120Z,10.34
2022-11-06T06:59:27.233Z,10.38
2022-11-06T07:00:06.137Z,10.38
2022-11-06T07:01:06.465Z,10.41
2022-11-06T07:02:07.740Z,10.41
2022-11-06T07:03:06.467Z,10.42
2022-11-06T07:04:06.195Z,10.44
2022-11-06T07:05:06.442Z,10.42
2022-11-06T07:06:06.185Z,10.45
2022-11-06T07:07:06.437Z,10.45
2022-11-06T07:08:06.198Z,10.47
2022-11-06T07:09:27.932Z,10.48
2022-11-06T07:10:06.216Z,10.52
2022-11-06T07:11:05.973Z,10.52
2022-11-06T07:12:06.214Z,10.53
2022-11-06T07:13:05.961Z,10.53
2022-11-06T07:14:06.212Z,10.55
2022-11-06T07:15:05.953Z,10.56
2022-11-06T07:16:06.173Z,10.56
2022-11-06T07:17:05.921Z,10.56
2022-11-06T07:18:06.158Z,10.60
2022-11-06T07:19:26.897Z,10.60
2022-11-06T07:20:07.148Z,10.60
2022-11-06T07:21:05.932Z,10.63
2022-11-06T07:22:06.168Z,10.63
2022-11-06T07:23:05.919Z,10.66
2022-11-06T07:24:12.424Z,10.68
2022-11-06T07:25:06.161Z,10.68
2022-11-06T07:26:05.918Z,10.71
2022-11-06T07:27:06.150Z,10.74
2022-11-06T07:28:05.897Z,10.78
2022-11-06T07:29:26.759Z,10.84
2022-11-06T07:30:05.917Z,10.85
2022-11-06T07:31:06.154Z,10.85
2022-11-06T07:32:05.917Z,10.85
2022-11-06T07:33:06.164Z,10.85
2022-11-06T07:34:12.198Z,10.86
2022-11-06T07:35:07.304Z,10.86
2022-11-06T07:36:05.727Z,10.89
2022-11-06T07:37:07.718Z,10.89
2022-11-06T07:38:05.732Z,10.91
2022-11-06T07:39:27.462Z,10.94
2022-11-06T07:40:07.290Z,10.94
2022-11-06T07:41:06.750Z,10.94
2022-11-06T07:42:07.392Z,10.92
2022-11-06T07:43:05.778Z,10.91
2022-11-06T07:44:07.499Z,10.91
2022-11-06T07:45:07.338Z,10.88
2022-11-06T07:46:07.151Z,10.89
2022-11-06T07:47:05.982Z,10.88
2022-11-06T07:48:05.728Z,10.89
2022-11-06T07:49:25.975Z,10.89
2022-11-06T07:50:05.747Z,10.89
2022-11-06T07:51:05.981Z,10.89
2022-11-06T07:52:05.812Z,10.92
2022-11-06T07:53:05.544Z,10.92
2022-11-06T07:54:05.826Z,10.94
2022-11-06T07:55:05.560Z,10.94
2022-11-06T07:56:05.839Z,10.96
2022-11-06T07:57:05.584Z,10.97
2022-11-06T07:58:07.316Z,11.00
2022-11-06T07:59:25.632Z,11.03
2022-11-06T08:00:07.348Z,11.04
2022-11-06T08:01:07.274Z,11.04
2022-11-06T08:02:07.079Z,11.09
2022-11-06T08:03:06.734Z,11.10
2022-11-06T08:04:06.519Z,11.17
2022-11-06T08:05:06.254Z,11.22
2022-11-06T08:06:07.114Z,11.27
2022-11-06T08:07:06.896Z,11.29
2022-11-06T08:08:07.134Z,11.36
2022-11-06T08:09:25.449Z,11.43
2022-11-06T08:10:06.264Z,11.49
2022-11-06T08:11:06.257Z,11.58
2022-11-06T08:12:07.250Z,11.67
2022-11-06T08:13:07.066Z,11.82
2022-11-06T08:14:05.464Z,12.04
2022-11-06T08:15:05.886Z,12.37
2022-11-06T08:16:06.275Z,12.74
2022-11-06T08:17:06.276Z,13.03
2022-11-06T08:18:06.996Z,13.29
2022-11-06T08:19:25.332Z,13.46
2022-11-06T08:20:06.537Z,13.64
2022-11-06T08:21:06.815Z,13.60
2022-11-06T08:22:06.269Z,13.64
2022-11-06T08:23:06.108Z,13.71
2022-11-06T08:24:06.153Z,13.96
2022-11-06T08:25:06.473Z,14.32
2022-11-06T08:26:06.233Z,14.55
2022-11-06T08:27:05.536Z,14.33
2022-11-06T08:28:05.276Z,14.25
2022-11-06T08:29:26.520Z,14.24
2022-11-06T08:30:05.312Z,14.35
2022-11-06T08:31:05.681Z,14.33
2022-11-06T08:32:05.313Z,14.46
2022-11-06T08:33:05.563Z,14.65
2022-11-06T08:35:21.411Z,15.20
2022-11-06T08:36:21.087Z,15.49
2022-11-06T08:37:21.311Z,15.76
2022-11-06T08:38:21.046Z,15.97
2022-11-06T08:39:22.240Z,16.07
2022-11-06T08:40:21.052Z,15.90
2022-11-06T08:41:21.287Z,15.53
2022-11-06T08:42:21.043Z,15.14
2022-11-06T08:43:21.304Z,14.84
2022-11-06T08:44:41.018Z,14.39
2022-11-06T08:45:21.262Z,14.27
2022-11-06T08:46:21.965Z,14.04
2022-11-06T08:47:21.269Z,13.82
2022-11-06T08:48:20.995Z,13.63
2022-11-06T08:49:21.230Z,13.59
2022-11-06T08:50:20.996Z,13.49
2022-11-06T08:51:21.238Z,13.39
2022-11-06T08:52:20.971Z,13.30
2022-11-06T08:53:21.299Z,13.28
2022-11-06T08:54:40.985Z,13.25
2022-11-06T08:55:21.226Z,13.19
2022-11-06T08:56:20.982Z,13.05
2022-11-06T08:57:20.697Z,12.95
2022-11-06T08:58:20.400Z,12.90
2022-11-06T08:59:22.443Z,12.83
2022-11-06T09:00:22.203Z,12.78
2022-11-06T09:01:21.302Z,12.78
2022-11-06T09:02:22.303Z,12.77
2022-11-06T09:03:22.020Z,12.75
2022-11-06T09:04:41.612Z,12.78
2022-11-06T09:05:21.814Z,12.77
2022-11-06T09:06:22.379Z,12.79
2022-11-06T09:07:22.112Z,12.83
2022-11-06T09:08:21.320Z,12.83
2022-11-06T09:09:22.190Z,12.83
2022-11-06T09:10:21.036Z,12.83
2022-11-06T09:11:20.994Z,12.85
2022-11-06T09:12:22.467Z,12.86
2022-11-06T09:13:21.316Z,12.87
2022-11-06T09:14:40.604Z,12.93
2022-11-06T09:15:20.878Z,12.96
2022-11-06T09:16:22.066Z,13.03
2022-11-06T09:17:21.846Z,13.07
2022-11-06T09:18:22.202Z,13.17
2022-11-06T09:19:21.318Z,13.28
2022-11-06T09:20:22.250Z,13.32
2022-11-06T09:21:22.010Z,13.48
2022-11-06T09:22:22.280Z,13.51
2022-11-06T09:23:20.727Z,13.51
2022-11-06T09:25:02.004Z,13.67
2022-11-06T09:25:22.583Z,13.71
2022-11-06T09:26:21.865Z,13.75
2022-11-06T09:27:20.791Z,13.81
2022-11-06T09:28:21.437Z,13.97
2022-11-06T09:29:22.169Z,14.65
2022-11-06T09:30:21.198Z,15.27
2022-11-06T09:31:22.216Z,16.17
2022-11-06T09:32:21.983Z,17.08
2022-11-06T09:33:22.295Z,17.63
2022-11-06T09:34:40.613Z,17.78
2022-11-06T09:35:21.820Z,17.40
2022-11-06T09:36:21.588Z,17.06
2022-11-06T09:37:21.387Z,17.25
2022-11-06T09:38:21.650Z,17.56
2022-11-06T09:39:20.502Z,18.20
2022-11-06T09:40:22.212Z,18.17
2022-11-06T09:41:21.328Z,17.36
2022-11-06T09:42:21.226Z,16.71
2022-11-06T09:43:43.100Z,16.30
2022-11-06T09:44:42.315Z,15.82
2022-11-06T09:45:21.493Z,15.64
2022-11-06T09:46:21.150Z,15.35
2022-11-06T09:47:21.504Z,15.35
2022-11-06T09:48:21.773Z,15.20
2022-11-06T09:49:22.084Z,15.29
2022-11-06T09:50:21.345Z,15.69
2022-11-06T09:51:20.421Z,15.80
2022-11-06T09:52:20.834Z,15.71
2022-11-06T09:53:20.466Z,15.49
2022-11-06T09:54:40.501Z,15.32
2022-11-06T09:55:21.658Z,15.10
2022-11-06T09:56:21.929Z,14.83
2022-11-06T09:57:20.326Z,14.57
2022-11-06T09:58:20.839Z,14.47
2022-11-06T09:59:21.717Z,14.33
2022-11-06T10:00:21.971Z,14.27
2022-11-06T10:01:26.902Z,14.22
2022-11-06T10:02:22.590Z,14.12
2022-11-06T10:03:21.022Z,14.00
2022-11-06T10:04:40.574Z,13.91
2022-11-06T10:05:20.354Z,13.88
2022-11-06T10:06:20.132Z,13.78
2022-11-06T10:07:21.831Z,13.67
2022-11-06T10:08:21.070Z,13.64
2022-11-06T10:09:20.461Z,13.62
2022-11-06T10:10:20.820Z,13.52
2022-11-06T10:11:20.490Z,13.49
2022-11-06T10:12:20.111Z,13.46
2022-11-06T10:13:20.367Z,13.46
2022-11-06T10:14:41.083Z,13.52
2022-11-06T10:15:20.372Z,13.51
2022-11-06T10:16:20.131Z,13.49
2022-11-06T10:17:20.364Z,13.48
2022-11-06T10:18:20.120Z,13.46
2022-11-06T10:19:19.843Z,13.52
2022-11-06T10:20:25.633Z,13.55
2022-11-06T10:21:21.342Z,13.57
2022-11-06T10:22:20.102Z,13.60
2022-11-06T10:23:19.845Z,13.63
2022-11-06T10:24:41.550Z,13.57
2022-11-06T10:25:19.865Z,13.49
2022-11-06T10:26:20.093Z,13.45
2022-11-06T10:27:19.854Z,13.48
2022-11-06T10:28:20.095Z,13.48
2022-11-06T10:29:19.861Z,13.52
2022-11-06T10:30:20.095Z,13.52
2022-11-06T10:31:19.871Z,13.54
2022-11-06T10:32:20.102Z,13.55
2022-11-06T10:33:19.839Z,13.51
2022-11-06T10:34:40.220Z,13.51
2022-11-06T10:35:19.833Z,13.51
2022-11-06T10:36:20.105Z,13.45
2022-11-06T10:37:19.846Z,13.59
2022-11-06T10:38:20.095Z,13.79
2022-11-06T10:39:19.852Z,14.17
2022-11-06T10:40:20.092Z,14.50
2022-11-06T10:41:19.840Z,14.62
2022-11-06T10:42:20.091Z,14.60
2022-11-06T10:43:19.851Z,14.50
2022-11-06T10:44:40.421Z,14.40
2022-11-06T10:45:19.890Z,14.33
2022-11-06T10:46:19.646Z,14.29
2022-11-06T10:47:19.901Z,14.20
2022-11-06T10:48:19.663Z,14.12
2022-11-06T10:49:19.889Z,14.02
2022-11-06T10:50:19.779Z,14.02
2022-11-06T10:51:19.901Z,13.92
2022-11-06T10:52:19.765Z,13.81
2022-11-06T10:53:20.446Z,13.73
2022-11-06T10:54:39.767Z,13.77
2022-11-06T10:55:20.999Z,13.73
2022-11-06T10:56:21.273Z,13.75
2022-11-06T10:57:21.116Z,13.82
2022-11-06T10:58:21.416Z,13.85
2022-11-06T10:59:21.192Z,13.91
2022-11-06T11:00:21.014Z,13.92
2022-11-06T11:01:20.569Z,13.95
2022-11-06T11:02:21.172Z,13.96
2022-11-06T11:03:20.900Z,13.99
2022-11-06T11:04:39.745Z,13.92
2022-11-06T11:05:21.004Z,13.95
2022-11-06T11:06:20.541Z,13.88
2022-11-06T11:07:21.788Z,13.89
2022-11-06T11:08:20.963Z,13.88
2022-11-06T11:09:19.937Z,13.82
2022-11-06T11:10:19.838Z,13.69
2022-11-06T11:11:20.346Z,13.69
2022-11-06T11:12:19.734Z,13.64
2022-11-06T11:13:21.333Z,13.60
2022-11-06T11:14:39.750Z,13.55
2022-11-06T11:15:20.989Z,13.51
2022-11-06T11:16:20.769Z,13.46
2022-11-06T11:17:20.542Z,13.41
2022-11-06T11:18:20.345Z,13.33
2022-11-06T11:19:20.396Z,13.36
2022-11-06T11:20:20.941Z,13.30
2022-11-06T11:21:20.818Z,13.26
2022-11-06T11:22:21.147Z,13.25
2022-11-06T11:23:20.981Z,13.23
2022-11-06T11:24:39.743Z,13.20
2022-11-06T11:25:20.954Z,13.22
2022-11-06T11:26:20.774Z,13.14
2022-11-06T11:27:21.062Z,13.12
2022-11-06T11:28:19.420Z,13.12
2022-11-06T11:29:19.376Z,13.11
2022-11-06T11:30:19.890Z,13.10
2022-11-06T11:31:20.807Z,13.05
2022-11-06T11:32:19.098Z,13.03
2022-11-06T11:33:19.424Z,13.03
2022-11-06T11:34:46.381Z,12.97
2022-11-06T11:35:20.423Z,12.97
2022-11-06T11:36:19.367Z,12.93
2022-11-06T11:37:19.432Z,12.93
2022-11-06T11:38:19.166Z,12.95
2022-11-06T11:39:19.389Z,12.96
2022-11-06T11:40:19.249Z,13.01
2022-11-06T11:41:19.426Z,13.11
2022-11-06T11:42:19.168Z,13.19
2022-11-06T11:43:19.450Z,13.26
2022-11-06T11:44:40.704Z,13.42
2022-11-06T11:45:18.989Z,13.45
2022-11-06T11:46:19.254Z,13.51
2022-11-06T11:47:19.001Z,13.48
2022-11-06T11:48:19.251Z,13.49
2022-11-06T11:49:18.996Z,13.48
2022-11-06T11:50:19.238Z,13.45
2022-11-06T11:51:18.975Z,13.38
2022-11-06T11:52:19.220Z,13.29
2022-11-06T11:53:18.949Z,13.22
2022-11-06T11:54:39.921Z,13.19
2022-11-06T11:55:19.002Z,13.15
2022-11-06T11:56:31.303Z,13.15
2022-11-06T11:57:19.983Z,13.14
2022-11-06T11:58:19.231Z,13.15
2022-11-06T11:59:18.964Z,13.14
2022-11-06T12:00:19.221Z,13.17
2022-11-06T12:01:18.969Z,13.20
2022-11-06T12:02:25.354Z,13.28
2022-11-06T12:03:20.071Z,13.38
2022-11-06T12:04:40.775Z,13.46
2022-11-06T12:05:19.051Z,13.51
2022-11-06T12:06:18.801Z,13.60
2022-11-06T12:07:19.044Z,13.63
2022-11-06T12:08:18.809Z,13.67
2022-11-06T12:09:19.042Z,13.69
2022-11-06T12:10:18.802Z,13.62
2022-11-06T12:11:19.044Z,13.55
2022-11-06T12:12:18.777Z,13.51
2022-11-06T12:13:19.004Z,13.45
2022-11-06T12:14:38.758Z,13.45
2022-11-06T12:15:18.991Z,13.45
2022-11-06T12:16:18.740Z,13.42
2022-11-06T12:17:18.979Z,13.44
2022-11-06T12:18:18.721Z,13.42
2022-11-06T12:19:18.970Z,13.45
2022-11-06T12:20:18.689Z,13.46
2022-11-06T12:21:18.946Z,13.46
2022-11-06T12:22:18.722Z,13.44
2022-11-06T12:23:18.956Z,13.42
2022-11-06T12:24:38.713Z,13.45
2022-11-06T12:25:18.938Z,13.44
2022-11-06T12:26:18.696Z,13.41
2022-11-06T12:27:18.929Z,13.39
2022-11-06T12:28:18.688Z,13.36
2022-11-06T12:29:19.868Z,13.30
2022-11-06T12:30:18.670Z,13.28
2022-11-06T12:31:18.915Z,13.26
2022-11-06T12:32:18.676Z,13.26
2022-11-06T12:33:18.917Z,13.22
2022-11-06T12:34:38.887Z,13.20
2022-11-06T12:35:18.907Z,13.20
2022-11-06T12:36:18.658Z,13.19
2022-11-06T12:37:18.888Z,13.14
2022-11-06T12:38:18.640Z,13.14
2022-11-06T12:39:18.879Z,13.14
2022-11-06T12:40:23.671Z,13.12
2022-11-06T12:41:19.888Z,13.14
2022-11-06T12:42:18.647Z,13.15
2022-11-06T12:43:17.876Z,13.19
2022-11-06T12:44:37.928Z,13.23
2022-11-06T12:45:17.938Z,13.20
2022-11-06T12:46:18.449Z,13.22
2022-11-06T12:47:22.623Z,13.22
2022-11-06T12:48:20.604Z,13.23
2022-11-06T12:49:18.835Z,13.22
2022-11-06T12:50:20.119Z,13.19
2022-11-06T12:51:19.450Z,13.11
2022-11-06T12:52:18.444Z,13.12
2022-11-06T12:53:20.203Z,13.10
2022-11-06T12:54:37.822Z,13.07
2022-11-06T12:55:19.265Z,13.04
2022-11-06T12:56:19.572Z,13.04
2022-11-06T12:57:18.959Z,13.03